sensor_id;sensor_type;location;lat;lon;timestamp;pressure;altitude;pressure_sealevel;temperature;humidity
54588;BME280;40484;50.198;19.576;2022-10-16T00:02:01;101894.60;;;18.78;47.41
54588;BME280;40484;50.198;19.576;2022-10-16T00:07:03;101904.62;;;18.69;47.68
54588;BME280;40484;50.198;19.576;2022-10-16T00:12:04;101899.19;;;18.68;47.68
54588;BME280;40484;50.198;19.576;2022-10-16T00:17:07;101895.92;;;18.60;47.89
54588;BME280;40484;50.198;19.576;2022-10-16T00:22:09;101908.54;;;18.61;47.96
54588;BME280;40484;50.198;19.576;2022-10-16T00:27:10;101907.93;;;18.61;47.99
54588;BME280;40484;50.198;19.576;2022-10-16T00:32:12;101915.91;;;18.61;48.04
54588;BME280;40484;50.198;19.576;2022-10-16T00:37:14;101916.15;;;18.60;48.20
54588;BME280;40484;50.198;19.576;2022-10-16T00:42:16;101912.07;;;18.64;48.20
54588;BME280;40484;50.198;19.576;2022-10-16T00:47:21;101925.72;;;18.68;48.18
54588;BME280;40484;50.198;19.576;2022-10-16T00:52:48;101922.43;;;18.77;48.04
54588;BME280;40484;50.198;19.576;2022-10-16T00:57:51;101927.68;;;18.78;48.00
54588;BME280;40484;50.198;19.576;2022-10-16T01:02:57;101929.34;;;18.79;47.99
54588;BME280;40484;50.198;19.576;2022-10-16T01:08:12;101930.65;;;18.76;47.97
54588;BME280;40484;50.198;19.576;2022-10-16T01:13:14;101933.30;;;18.67;48.06
54588;BME280;40484;50.198;19.576;2022-10-16T01:18:23;101934.41;;;18.63;48.09
54588;BME280;40484;50.198;19.576;2022-10-16T01:23:33;101939.06;;;18.62;48.17
54588;BME280;40484;50.198;19.576;2022-10-16T01:33:56;101942.86;;;18.61;48.27
54588;BME280;40484;50.198;19.576;2022-10-16T01:38:56;101941.13;;;18.64;48.17
54588;BME280;40484;50.198;19.576;2022-10-16T01:44:10;101938.30;;;18.58;47.77
54588;BME280;40484;50.198;19.576;2022-10-16T01:49:36;101943.13;;;18.70;47.38
54588;BME280;40484;50.198;19.576;2022-10-16T01:54:40;101934.28;;;18.72;47.42
54588;BME280;40484;50.198;19.576;2022-10-16T01:59:47;101926.09;;;18.70;47.50
54588;BME280;40484;50.198;19.576;2022-10-16T02:04:53;101933.02;;;18.58;47.63
54588;BME280;40484;50.198;19.576;2022-10-16T02:15:00;101932.66;;;18.40;47.78
54588;BME280;40484;50.198;19.576;2022-10-16T02:20:02;101943.98;;;18.28;47.97
54588;BME280;40484;50.198;19.576;2022-10-16T02:25:10;101946.34;;;18.27;48.00
54588;BME280;40484;50.198;19.576;2022-10-16T02:30:15;101944.01;;;18.27;47.97
54588;BME280;40484;50.198;19.576;2022-10-16T02:35:18;101954.02;;;18.17;48.07
54588;BME280;40484;50.198;19.576;2022-10-16T02:40:20;101948.53;;;18.04;48.15
54588;BME280;40484;50.198;19.576;2022-10-16T02:45:23;101952.45;;;17.94;48.29
54588;BME280;40484;50.198;19.576;2022-10-16T02:50:25;101956.52;;;17.88;48.41
54588;BME280;40484;50.198;19.576;2022-10-16T02:55:26;101950.39;;;17.70;48.59
54588;BME280;40484;50.198;19.576;2022-10-16T03:00:29;101954.16;;;17.52;48.88
54588;BME280;40484;50.198;19.576;2022-10-16T03:05:30;101948.05;;;17.34;49.20
54588;BME280;40484;50.198;19.576;2022-10-16T03:10:59;101958.38;;;17.30;49.34
54588;BME280;40484;50.198;19.576;2022-10-16T03:16:01;101959.75;;;17.18;49.36
54588;BME280;40484;50.198;19.576;2022-10-16T03:21:02;101963.14;;;17.15;49.24
54588;BME280;40484;50.198;19.576;2022-10-16T03:26:04;101970.30;;;17.12;49.26
54588;BME280;40484;50.198;19.576;2022-10-16T03:31:05;101975.02;;;17.04;49.34
54588;BME280;40484;50.198;19.576;2022-10-16T03:36:07;101988.07;;;17.01;49.35
54588;BME280;40484;50.198;19.576;2022-10-16T03:41:08;101995.03;;;16.98;49.51
54588;BME280;40484;50.198;19.576;2022-10-16T03:46:10;102001.02;;;16.85;49.73
54588;BME280;40484;50.198;19.576;2022-10-16T03:51:11;102000.98;;;16.87;49.67
54588;BME280;40484;50.198;19.576;2022-10-16T03:56:13;101998.48;;;16.83;49.76
54588;BME280;40484;50.198;19.576;2022-10-16T04:01:14;101997.39;;;16.87;49.67
54588;BME280;40484;50.198;19.576;2022-10-16T04:06:16;102009.13;;;16.94;49.87
54588;BME280;40484;50.198;19.576;2022-10-16T04:11:17;102003.66;;;16.93;49.88
54588;BME280;40484;50.198;19.576;2022-10-16T04:16:19;102006.86;;;16.89;49.91
54588;BME280;40484;50.198;19.576;2022-10-16T04:21:21;102013.95;;;16.93;49.81
54588;BME280;40484;50.198;19.576;2022-10-16T04:26:23;102008.45;;;16.97;49.58
54588;BME280;40484;50.198;19.576;2022-10-16T04:31:24;102015.45;;;16.89;49.59
54588;BME280;40484;50.198;19.576;2022-10-16T04:36:26;102012.48;;;16.93;49.39
54588;BME280;40484;50.198;19.576;2022-10-16T04:41:28;102020.08;;;16.87;49.37
54588;BME280;40484;50.198;19.576;2022-10-16T04:46:29;102027.84;;;16.89;49.36
54588;BME280;40484;50.198;19.576;2022-10-16T04:51:31;102027.05;;;16.81;49.14
54588;BME280;40484;50.198;19.576;2022-10-16T04:56:32;102025.88;;;16.66;49.27
54588;BME280;40484;50.198;19.576;2022-10-16T05:02:00;102024.78;;;16.77;49.27
54588;BME280;40484;50.198;19.576;2022-10-16T05:07:02;102023.94;;;16.73;49.56
54588;BME280;40484;50.198;19.576;2022-10-16T05:12:03;102030.28;;;16.66;49.71
54588;BME280;40484;50.198;19.576;2022-10-16T05:17:05;102024.90;;;16.54;49.99
54588;BME280;40484;50.198;19.576;2022-10-16T05:22:07;102017.57;;;16.48;50.15
54588;BME280;40484;50.198;19.576;2022-10-16T05:27:08;102018.60;;;16.50;50.39
54588;BME280;40484;50.198;19.576;2022-10-16T05:32:10;102018.19;;;16.50;50.59
54588;BME280;40484;50.198;19.576;2022-10-16T05:37:12;102023.87;;;16.47;50.71
54588;BME280;40484;50.198;19.576;2022-10-16T05:42:14;102027.39;;;16.54;50.70
54588;BME280;40484;50.198;19.576;2022-10-16T05:47:16;102034.13;;;16.51;51.00
54588;BME280;40484;50.198;19.576;2022-10-16T05:52:17;102036.81;;;16.58;50.99
54588;BME280;40484;50.198;19.576;2022-10-16T05:57:19;102055.90;;;16.64;51.11
54588;BME280;40484;50.198;19.576;2022-10-16T06:02:20;102068.10;;;16.60;51.45
54588;BME280;40484;50.198;19.576;2022-10-16T06:07:22;102070.13;;;16.69;51.49
54588;BME280;40484;50.198;19.576;2022-10-16T06:12:24;102080.44;;;16.67;51.98
54588;BME280;40484;50.198;19.576;2022-10-16T06:17:26;102084.81;;;16.80;52.05
54588;BME280;40484;50.198;19.576;2022-10-16T06:22:27;102097.55;;;16.92;52.40
54588;BME280;40484;50.198;19.576;2022-10-16T06:27:29;102111.02;;;17.15;52.48
54588;BME280;40484;50.198;19.576;2022-10-16T06:32:30;102121.23;;;17.30;52.24
54588;BME280;40484;50.198;19.576;2022-10-16T06:37:32;102130.66;;;17.61;51.79
54588;BME280;40484;50.198;19.576;2022-10-16T06:42:33;102134.39;;;17.93;50.99
54588;BME280;40484;50.198;19.576;2022-10-16T06:47:35;102134.08;;;18.25;50.41
54588;BME280;40484;50.198;19.576;2022-10-16T06:53:01;102141.47;;;18.59;49.54
54588;BME280;40484;50.198;19.576;2022-10-16T06:58:02;102136.04;;;18.73;49.46
54588;BME280;40484;50.198;19.576;2022-10-16T07:03:04;102143.43;;;18.88;49.31
54588;BME280;40484;50.198;19.576;2022-10-16T07:08:05;102153.32;;;18.90;49.11
54588;BME280;40484;50.198;19.576;2022-10-16T07:13:07;102159.34;;;18.96;48.57
54588;BME280;40484;50.198;19.576;2022-10-16T07:18:08;102151.90;;;18.86;48.80
54588;BME280;40484;50.198;19.576;2022-10-16T07:23:10;102153.23;;;18.95;48.70
54588;BME280;40484;50.198;19.576;2022-10-16T07:28:12;102156.16;;;19.12;48.46
54588;BME280;40484;50.198;19.576;2022-10-16T07:33:14;102163.12;;;19.12;48.13
54588;BME280;40484;50.198;19.576;2022-10-16T07:38:15;102162.50;;;19.40;47.69
54588;BME280;40484;50.198;19.576;2022-10-16T07:43:17;102161.68;;;19.39;47.24
54588;BME280;40484;50.198;19.576;2022-10-16T07:48:19;102171.33;;;19.26;47.29
54588;BME280;40484;50.198;19.576;2022-10-16T07:53:20;102171.06;;;19.44;47.09
54588;BME280;40484;50.198;19.576;2022-10-16T07:58:22;102166.33;;;19.65;46.90
54588;BME280;40484;50.198;19.576;2022-10-16T08:03:26;102173.94;;;19.49;46.58
54588;BME280;40484;50.198;19.576;2022-10-16T08:08:28;102179.67;;;19.75;46.56
54588;BME280;40484;50.198;19.576;2022-10-16T08:13:31;102190.23;;;19.88;46.09
54588;BME280;40484;50.198;19.576;2022-10-16T08:18:34;102187.95;;;19.43;46.24
54588;BME280;40484;50.198;19.576;2022-10-16T08:23:36;102193.78;;;19.64;46.39
54588;BME280;40484;50.198;19.576;2022-10-16T08:28:38;102190.13;;;19.68;46.65
54588;BME280;40484;50.198;19.576;2022-10-16T08:33:41;102182.56;;;19.91;45.93
54588;BME280;40484;50.198;19.576;2022-10-16T08:39:07;102188.27;;;20.38;45.71
54588;BME280;40484;50.198;19.576;2022-10-16T08:44:23;102198.79;;;20.51;45.69
54588;BME280;40484;50.198;19.576;2022-10-16T08:49:22;102208.50;;;20.52;45.03
54588;BME280;40484;50.198;19.576;2022-10-16T08:54:36;102228.72;;;20.77;44.99
54588;BME280;40484;50.198;19.576;2022-10-16T08:59:39;102222.30;;;20.60;45.31
54588;BME280;40484;50.198;19.576;2022-10-16T09:10:03;102224.40;;;20.48;45.28
54588;BME280;40484;50.198;19.576;2022-10-16T09:15:16;102223.56;;;20.59;45.30
54588;BME280;40484;50.198;19.576;2022-10-16T09:20:30;102218.76;;;20.99;44.85
54588;BME280;40484;50.198;19.576;2022-10-16T09:25:32;102223.92;;;20.95;45.43
54588;BME280;40484;50.198;19.576;2022-10-16T09:30:59;102225.23;;;21.12;44.27
54588;BME280;40484;50.198;19.576;2022-10-16T09:36:02;102227.19;;;21.00;44.60
54588;BME280;40484;50.198;19.576;2022-10-16T09:41:18;102230.63;;;21.17;43.81
54588;BME280;40484;50.198;19.576;2022-10-16T09:46:30;102237.89;;;21.52;44.19
54588;BME280;40484;50.198;19.576;2022-10-16T09:51:36;102241.36;;;21.59;43.75
54588;BME280;40484;50.198;19.576;2022-10-16T09:56:38;102241.21;;;21.56;43.70
54588;BME280;40484;50.198;19.576;2022-10-16T10:01:51;102242.79;;;21.61;43.65
54588;BME280;40484;50.198;19.576;2022-10-16T10:06:54;102243.76;;;21.82;43.67
54588;BME280;40484;50.198;19.576;2022-10-16T10:12:00;102243.09;;;21.93;42.88
54588;BME280;40484;50.198;19.576;2022-10-16T10:17:14;102254.53;;;21.82;42.78
54588;BME280;40484;50.198;19.576;2022-10-16T10:22:22;102259.50;;;22.05;43.03
54588;BME280;40484;50.198;19.576;2022-10-16T11:05:31;102244.80;;;22.18;42.97
54588;BME280;40484;50.198;19.576;2022-10-16T11:15:39;102247.73;;;22.51;42.37
54588;BME280;40484;50.198;19.576;2022-10-16T11:20:47;102241.35;;;22.52;42.27
54588;BME280;40484;50.198;19.576;2022-10-16T11:25:49;102243.46;;;22.21;42.64
54588;BME280;40484;50.198;19.576;2022-10-16T11:36:25;102250.80;;;22.55;42.15
54588;BME280;40484;50.198;19.576;2022-10-16T11:41:35;102250.73;;;22.65;42.07
54588;BME280;40484;50.198;19.576;2022-10-16T11:47:19;102243.51;;;22.81;41.98
54588;BME280;40484;50.198;19.576;2022-10-16T11:52:36;102244.05;;;22.84;42.12
54588;BME280;40484;50.198;19.576;2022-10-16T11:57:41;102258.29;;;22.68;42.17
54588;BME280;40484;50.198;19.576;2022-10-16T12:02:44;102258.18;;;22.72;41.97
54588;BME280;40484;50.198;19.576;2022-10-16T12:08:04;102248.23;;;22.64;42.20
54588;BME280;40484;50.198;19.576;2022-10-16T12:13:25;102245.92;;;22.78;42.10
54588;BME280;40484;50.198;19.576;2022-10-16T12:18:20;102251.24;;;22.54;42.59
54588;BME280;40484;50.198;19.576;2022-10-16T12:23:19;102245.24;;;22.72;42.02
54588;BME280;40484;50.198;19.576;2022-10-16T12:28:22;102254.35;;;22.42;42.60
54588;BME280;40484;50.198;19.576;2022-10-16T12:33:33;102253.66;;;22.59;42.39
54588;BME280;40484;50.198;19.576;2022-10-16T12:39:00;102263.80;;;22.76;41.48
54588;BME280;40484;50.198;19.576;2022-10-16T12:44:03;102278.50;;;22.73;42.07
54588;BME280;40484;50.198;19.576;2022-10-16T13:02:53;102281.84;;;22.82;41.53
54588;BME280;40484;50.198;19.576;2022-10-16T13:08:24;102277.53;;;22.62;42.00
54588;BME280;40484;50.198;19.576;2022-10-16T13:18:49;102272.55;;;22.42;42.31
54588;BME280;40484;50.198;19.576;2022-10-16T13:29:48;102299.77;;;22.54;42.05
54588;BME280;40484;50.198;19.576;2022-10-16T13:34:49;102297.59;;;22.48;42.27
54588;BME280;40484;50.198;19.576;2022-10-16T13:39:51;102305.16;;;22.51;42.18
54588;BME280;40484;50.198;19.576;2022-10-16T13:44:54;102304.69;;;22.36;42.31
54588;BME280;40484;50.198;19.576;2022-10-16T13:50:09;102305.88;;;22.48;42.37
54588;BME280;40484;50.198;19.576;2022-10-16T13:55:16;102308.09;;;22.36;42.48
54588;BME280;40484;50.198;19.576;2022-10-16T14:00:23;102306.35;;;22.45;41.99
54588;BME280;40484;50.198;19.576;2022-10-16T14:05:24;102311.98;;;22.33;41.81
54588;BME280;40484;50.198;19.576;2022-10-16T14:10:31;102305.26;;;22.31;41.70
54588;BME280;40484;50.198;19.576;2022-10-16T14:15:34;102297.45;;;22.29;41.87
54588;BME280;40484;50.198;19.576;2022-10-16T14:20:36;102286.72;;;22.43;42.08
54588;BME280;40484;50.198;19.576;2022-10-16T14:25:38;102276.35;;;22.43;42.62
54588;BME280;40484;50.198;19.576;2022-10-16T14:35:44;102274.65;;;22.97;42.52
54588;BME280;40484;50.198;19.576;2022-10-16T14:40:47;102297.69;;;23.08;42.55
54588;BME280;40484;50.198;19.576;2022-10-16T14:46:16;102302.35;;;23.15;42.44
54588;BME280;40484;50.198;19.576;2022-10-16T14:51:19;102319.15;;;22.83;42.42
54588;BME280;40484;50.198;19.576;2022-10-16T14:56:22;102335.51;;;22.81;42.36
54588;BME280;40484;50.198;19.576;2022-10-16T15:01:24;102337.80;;;22.42;42.85
54588;BME280;40484;50.198;19.576;2022-10-16T15:06:26;102343.45;;;22.37;42.95
54588;BME280;40484;50.198;19.576;2022-10-16T15:11:28;102344.66;;;22.29;43.21
54588;BME280;40484;50.198;19.576;2022-10-16T15:16:30;102341.89;;;22.22;43.46
54588;BME280;40484;50.198;19.576;2022-10-16T15:21:32;102339.45;;;22.43;43.20
54588;BME280;40484;50.198;19.576;2022-10-16T15:26:33;102330.12;;;22.51;42.95
54588;BME280;40484;50.198;19.576;2022-10-16T15:31:35;102340.25;;;22.62;43.31
54588;BME280;40484;50.198;19.576;2022-10-16T15:36:38;102345.29;;;22.63;43.26
54588;BME280;40484;50.198;19.576;2022-10-16T15:41:40;102352.54;;;22.46;44.09
54588;BME280;40484;50.198;19.576;2022-10-16T15:46:43;102342.36;;;22.29;44.59
54588;BME280;40484;50.198;19.576;2022-10-16T15:51:45;102347.91;;;22.09;44.84
54588;BME280;40484;50.198;19.576;2022-10-16T15:56:47;102354.01;;;21.83;45.44
54588;BME280;40484;50.198;19.576;2022-10-16T16:01:48;102353.36;;;21.64;45.84
54588;BME280;40484;50.198;19.576;2022-10-16T16:06:50;102361.09;;;21.50;45.96
54588;BME280;40484;50.198;19.576;2022-10-16T16:11:52;102358.46;;;21.32;46.10
54588;BME280;40484;50.198;19.576;2022-10-16T16:16:54;102361.67;;;21.19;46.17
54588;BME280;40484;50.198;19.576;2022-10-16T16:21:56;102372.63;;;20.99;46.42
54588;BME280;40484;50.198;19.576;2022-10-16T16:27:22;102386.26;;;20.93;46.50
54588;BME280;40484;50.198;19.576;2022-10-16T16:32:25;102388.30;;;20.86;46.55
54588;BME280;40484;50.198;19.576;2022-10-16T16:37:27;102396.40;;;20.70;47.06
54588;BME280;40484;50.198;19.576;2022-10-16T16:42:28;102395.91;;;20.73;46.73
54588;BME280;40484;50.198;19.576;2022-10-16T16:47:30;102399.98;;;20.83;46.93
54588;BME280;40484;50.198;19.576;2022-10-16T16:52:31;102404.03;;;20.69;47.33
54588;BME280;40484;50.198;19.576;2022-10-16T16:57:33;102413.13;;;20.55;47.61
54588;BME280;40484;50.198;19.576;2022-10-16T17:02:35;102432.60;;;20.50;47.63
54588;BME280;40484;50.198;19.576;2022-10-16T17:07:36;102437.76;;;20.45;47.61
54588;BME280;40484;50.198;19.576;2022-10-16T17:12:40;102440.77;;;20.41;47.59
54588;BME280;40484;50.198;19.576;2022-10-16T17:17:41;102442.52;;;20.37;47.41
54588;BME280;40484;50.198;19.576;2022-10-16T17:22:44;102447.20;;;20.21;47.57
54588;BME280;40484;50.198;19.576;2022-10-16T17:27:45;102446.47;;;19.96;48.17
54588;BME280;40484;50.198;19.576;2022-10-16T17:32:47;102452.20;;;19.95;48.19
54588;BME280;40484;50.198;19.576;2022-10-16T17:37:51;102462.20;;;19.89;48.19
54588;BME280;40484;50.198;19.576;2022-10-16T17:42:52;102476.60;;;19.84;48.32
54588;BME280;40484;50.198;19.576;2022-10-16T17:47:54;102483.02;;;19.77;48.37
54588;BME280;40484;50.198;19.576;2022-10-16T17:52:56;102485.09;;;19.80;48.12
54588;BME280;40484;50.198;19.576;2022-10-16T17:57:57;102492.47;;;19.80;47.90
54588;BME280;40484;50.198;19.576;2022-10-16T18:02:59;102498.03;;;19.72;47.68
54588;BME280;40484;50.198;19.576;2022-10-16T18:08:01;102501.48;;;19.67;47.63
54588;BME280;40484;50.198;19.576;2022-10-16T18:13:27;102511.37;;;19.63;47.64
54588;BME280;40484;50.198;19.576;2022-10-16T18:18:29;102511.70;;;19.55;47.98
54588;BME280;40484;50.198;19.576;2022-10-16T18:23:33;102526.23;;;19.56;48.45
54588;BME280;40484;50.198;19.576;2022-10-16T18:28:35;102533.36;;;19.64;48.40
54588;BME280;40484;50.198;19.576;2022-10-16T18:33:37;102534.77;;;19.69;48.25
54588;BME280;40484;50.198;19.576;2022-10-16T18:38:38;102532.68;;;19.68;48.29
54588;BME280;40484;50.198;19.576;2022-10-16T18:43:41;102533.13;;;19.67;48.30
54588;BME280;40484;50.198;19.576;2022-10-16T18:48:44;102546.85;;;19.62;48.30
54588;BME280;40484;50.198;19.576;2022-10-16T18:53:48;102558.57;;;19.50;48.67
54588;BME280;40484;50.198;19.576;2022-10-16T18:58:51;102564.71;;;19.72;48.63
54588;BME280;40484;50.198;19.576;2022-10-16T19:04:03;102566.97;;;19.79;48.25
54588;BME280;40484;50.198;19.576;2022-10-16T19:09:01;102575.04;;;19.72;47.85
54588;BME280;40484;50.198;19.576;2022-10-16T19:14:03;102578.73;;;19.57;47.58
54588;BME280;40484;50.198;19.576;2022-10-16T19:19:06;102580.55;;;19.42;47.58
54588;BME280;40484;50.198;19.576;2022-10-16T19:24:10;102582.59;;;19.26;47.88
54588;BME280;40484;50.198;19.576;2022-10-16T19:29:12;102581.53;;;19.00;48.72
54588;BME280;40484;50.198;19.576;2022-10-16T19:34:13;102595.08;;;18.88;49.31
54588;BME280;40484;50.198;19.576;2022-10-16T19:39:15;102597.98;;;18.97;49.08
54588;BME280;40484;50.198;19.576;2022-10-16T19:44:44;102596.03;;;19.06;48.71
54588;BME280;40484;50.198;19.576;2022-10-16T19:49:45;102605.49;;;19.09;48.32
54588;BME280;40484;50.198;19.576;2022-10-16T19:54:48;102602.60;;;19.00;48.15
54588;BME280;40484;50.198;19.576;2022-10-16T19:59:53;102607.10;;;18.86;48.63
54588;BME280;40484;50.198;19.576;2022-10-16T20:04:55;102612.98;;;18.93;49.86
54588;BME280;40484;50.198;19.576;2022-10-16T20:09:56;102614.41;;;19.30;49.20
54588;BME280;40484;50.198;19.576;2022-10-16T20:14:58;102612.98;;;19.47;48.69
54588;BME280;40484;50.198;19.576;2022-10-16T20:19:59;102616.06;;;19.57;48.33
54588;BME280;40484;50.198;19.576;2022-10-16T20:25:01;102623.78;;;19.45;48.38
54588;BME280;40484;50.198;19.576;2022-10-16T20:30:03;102638.16;;;19.40;49.08
54588;BME280;40484;50.198;19.576;2022-10-16T20:35:05;102637.63;;;19.52;49.14
54588;BME280;40484;50.198;19.576;2022-10-16T20:40:08;102638.12;;;19.71;48.29
54588;BME280;40484;50.198;19.576;2022-10-16T20:45:10;102641.38;;;19.58;47.51
54588;BME280;40484;50.198;19.576;2022-10-16T20:50:11;102652.37;;;19.28;47.33
54588;BME280;40484;50.198;19.576;2022-10-16T20:55:15;102654.04;;;18.97;47.21
54588;BME280;40484;50.198;19.576;2022-10-16T21:00:18;102662.78;;;18.70;47.21
54588;BME280;40484;50.198;19.576;2022-10-16T21:05:20;102675.91;;;18.51;47.37
54588;BME280;40484;50.198;19.576;2022-10-16T21:10:22;102663.54;;;18.39;47.74
54588;BME280;40484;50.198;19.576;2022-10-16T21:15:24;102673.23;;;18.37;47.85
54588;BME280;40484;50.198;19.576;2022-10-16T21:20:25;102681.04;;;18.29;47.93
54588;BME280;40484;50.198;19.576;2022-10-16T21:25:52;102684.18;;;18.30;47.76
54588;BME280;40484;50.198;19.576;2022-10-16T21:30:54;102684.83;;;18.24;47.86
54588;BME280;40484;50.198;19.576;2022-10-16T21:35:55;102690.97;;;18.16;47.98
54588;BME280;40484;50.198;19.576;2022-10-16T21:40:59;102681.51;;;18.09;48.02
54588;BME280;40484;50.198;19.576;2022-10-16T21:46:00;102694.75;;;18.11;48.12
54588;BME280;40484;50.198;19.576;2022-10-16T21:51:02;102699.40;;;18.03;48.16
54588;BME280;40484;50.198;19.576;2022-10-16T21:56:05;102706.57;;;17.91;48.46
54588;BME280;40484;50.198;19.576;2022-10-16T22:01:08;102716.25;;;17.90;48.50
54588;BME280;40484;50.198;19.576;2022-10-16T22:06:11;102716.45;;;17.86;48.46
54588;BME280;40484;50.198;19.576;2022-10-16T22:11:17;102718.77;;;17.79;48.49
54588;BME280;40484;50.198;19.576;2022-10-16T22:16:20;102727.56;;;17.75;48.68
54588;BME280;40484;50.198;19.576;2022-10-16T22:21:22;102733.88;;;17.72;48.82
54588;BME280;40484;50.198;19.576;2022-10-16T22:26:24;102731.75;;;17.67;49.08
54588;BME280;40484;50.198;19.576;2022-10-16T22:31:26;102736.59;;;17.71;49.08
54588;BME280;40484;50.198;19.576;2022-10-16T22:36:28;102732.60;;;17.73;49.03
54588;BME280;40484;50.198;19.576;2022-10-16T22:41:30;102730.73;;;17.75;48.88
54588;BME280;40484;50.198;19.576;2022-10-16T22:46:32;102737.22;;;17.74;48.94
54588;BME280;40484;50.198;19.576;2022-10-16T22:51:33;102733.46;;;17.77;49.06
54588;BME280;40484;50.198;19.576;2022-10-16T22:56:35;102736.83;;;17.76;49.28
54588;BME280;40484;50.198;19.576;2022-10-16T23:02:04;102732.42;;;17.83;49.29
54588;BME280;40484;50.198;19.576;2022-10-16T23:07:05;102734.29;;;17.71;49.50
54588;BME280;40484;50.198;19.576;2022-10-16T23:12:07;102738.49;;;17.57;49.70
54588;BME280;40484;50.198;19.576;2022-10-16T23:17:08;102747.53;;;17.60;49.56
54588;BME280;40484;50.198;19.576;2022-10-16T23:22:10;102746.27;;;17.59;49.40
54588;BME280;40484;50.198;19.576;2022-10-16T23:27:11;102744.38;;;17.50;49.24
54588;BME280;40484;50.198;19.576;2022-10-16T23:32:13;102751.27;;;17.43;49.11
54588;BME280;40484;50.198;19.576;2022-10-16T23:37:14;102755.88;;;17.33;49.08
54588;BME280;40484;50.198;19.576;2022-10-16T23:42:17;102758.16;;;17.23;49.19
54588;BME280;40484;50.198;19.576;2022-10-16T23:47:18;102759.63;;;17.19;49.30
54588;BME280;40484;50.198;19.576;2022-10-16T23:52:20;102771.58;;;17.15;49.38
54588;BME280;40484;50.198;19.576;2022-10-16T23:57:21;102780.84;;;17.13;49.25
